Time;durP1;ratioP1;P1;durP2;ratioP2;P2;SDS_P1;SDS_P2;PMS_P1;PMS_P2;Temp;Humidity;BMP_temperature;BMP_pressure;BME280_temperature;BME280_humidity;BME280_pressure;Samples;Min_cycle;Max_cycle;Signal;HPM_P1;HPM_P2
2023/02/23 18:50:11;;;;;;;15.90;5.93;;;;;;;10.03;100.00;95885.25;5037115;27;20588;-68
2023/02/23 18:52:39;;;;;;;15.50;5.20;;;;;;;9.98;100.00;95884.97;5029058;28;20260;-68
2023/02/23 18:55:07;;;;;;;14.43;5.53;;;;;;;10.03;100.00;95877.34;5030806;28;20581;-68
2023/02/23 18:57:34;;;;;;;64.87;14.30;;;;;;;10.01;100.00;95881.19;5032512;28;20201;-68
2023/02/23 19:00:00;;;;;;;29.63;7.60;;;;;;;10.05;100.00;95888.50;5031605;28;20725;-68
2023/02/23 19:02:27;;;;;;;14.33;5.10;;;;;;;10.06;100.00;95884.88;5031853;28;20232;-68
2023/02/23 19:04:54;;;;;;;13.73;4.73;;;;;;;10.03;100.00;95890.53;5028931;28;20197;-68
2023/02/23 19:07:22;;;;;;;14.40;4.90;;;;;;;10.03;100.00;95890.53;5032150;28;20505;-68
2023/02/23 19:09:50;;;;;;;18.97;6.07;;;;;;;9.83;100.00;95889.38;5031591;28;20232;-68
2023/02/23 19:12:16;;;;;;;13.73;5.43;;;;;;;9.76;100.00;95883.22;5031947;28;20208;-68
2023/02/23 19:14:43;;;;;;;14.60;5.20;;;;;;;9.80;100.00;95895.03;5027575;28;20197;-67
2023/02/23 19:17:09;;;;;;;19.57;6.50;;;;;;;9.80;100.00;95889.75;5029546;28;20843;-68
2023/02/23 19:19:36;;;;;;;17.93;5.60;;;;;;;9.72;100.00;95889.00;5029153;28;20679;-68
2023/02/23 19:22:03;;;;;;;13.60;5.27;;;;;;;9.66;100.00;95889.75;5029253;28;20201;-68
2023/02/23 19:24:31;;;;;;;15.30;5.33;;;;;;;9.50;100.00;95896.97;5027527;28;20202;-68
2023/02/23 19:26:57;;;;;;;18.63;5.57;;;;;;;9.44;100.00;95892.41;5024819;28;20271;-68
2023/02/23 19:29:24;;;;;;;19.13;5.93;;;;;;;9.48;100.00;95899.78;5029733;28;20228;-68
2023/02/23 19:31:50;;;;;;;18.50;5.93;;;;;;;9.53;100.00;95902.69;5030685;28;20666;-68
2023/02/23 19:34:16;;;;;;;15.33;6.10;;;;;;;9.52;100.00;95902.84;5029713;28;20227;-68
2023/02/23 19:36:46;;;;;;;15.17;5.83;;;;;;;9.49;100.00;95901.41;5030831;28;20665;-68
2023/02/23 19:39:14;;;;;;;17.10;6.10;;;;;;;9.58;100.00;95894.25;5030046;28;20717;-68
2023/02/23 19:41:43;;;;;;;20.03;6.80;;;;;;;9.65;100.00;95896.00;5026269;28;20557;-68
2023/02/23 19:44:10;;;;;;;17.10;6.07;;;;;;;9.55;100.00;95895.44;5026414;28;20284;-68
2023/02/23 19:46:38;;;;;;;14.67;6.17;;;;;;;9.55;100.00;95895.44;5028412;28;20305;-68
2023/02/23 19:49:05;;;;;;;17.67;5.93;;;;;;;9.53;100.00;95892.16;5029420;28;20221;-68
2023/02/23 19:51:32;;;;;;;17.20;5.47;;;;;;;9.51;100.00;95895.97;5030790;28;20558;-68
2023/02/23 19:53:59;;;;;;;19.80;8.37;;;;;;;9.48;100.00;95899.78;5029419;28;20232;-68
2023/02/23 19:56:27;;;;;;;23.90;6.80;;;;;;;9.43;100.00;95901.28;5025402;28;20201;-68
2023/02/23 19:58:55;;;;;;;19.80;7.03;;;;;;;9.34;100.00;95897.94;5029375;28;20288;-68
2023/02/23 20:01:26;;;;;;;18.13;6.07;;;;;;;9.36;100.00;95895.94;5017559;28;20674;-68
2023/02/23 20:03:55;;;;;;;20.57;7.80;;;;;;;9.29;100.00;95889.75;5016387;28;20244;-68
2023/02/23 20:06:23;;;;;;;25.17;8.83;;;;;;;9.36;100.00;95892.50;5012616;28;20205;-68
2023/02/23 20:08:51;;;;;;;31.30;10.70;;;;;;;9.35;100.00;95894.28;5016863;28;20232;-68
2023/02/23 20:11:18;;;;;;;25.03;8.63;;;;;;;9.36;100.00;95885.41;5017292;28;20293;-68
2023/02/23 20:13:45;;;;;;;55.87;13.90;;;;;;;9.45;100.00;95896.69;5015746;28;20248;-68
2023/02/23 20:16:14;;;;;;;33.30;11.70;;;;;;;9.51;100.00;95894.16;5017303;28;20313;-68
2023/02/23 20:18:42;;;;;;;38.23;10.57;;;;;;;9.50;100.00;95896.97;5017105;28;20210;-68
2023/02/23 20:21:09;;;;;;;37.17;12.27;;;;;;;9.55;100.00;95894.63;5016633;28;20209;-68
2023/02/23 20:23:36;;;;;;;29.23;9.37;;;;;;;9.51;100.00;95890.69;5015944;28;20328;-68
2023/02/23 20:26:04;;;;;;;21.60;8.40;;;;;;;9.60;100.00;95890.47;5013625;28;21277;-68
2023/02/23 20:28:31;;;;;;;30.67;9.57;;;;;;;9.51;100.00;95888.91;5012262;28;20601;-68
2023/02/23 20:30:57;;;;;;;22.20;7.70;;;;;;;9.45;100.00;95886.16;5015935;28;20206;-68
2023/02/23 20:33:25;;;;;;;20.33;7.37;;;;;;;9.52;100.00;95889.72;5017125;28;20222;-68
2023/02/23 20:35:51;;;;;;;16.83;7.20;;;;;;;9.36;100.00;95892.50;5016235;28;20686;-68
2023/02/23 20:38:18;;;;;;;22.27;7.50;;;;;;;9.40;100.00;95880.63;5016451;28;20574;-68
2023/02/23 20:40:44;;;;;;;17.43;7.30;;;;;;;9.35;100.00;95880.34;5012674;28;20657;-68
2023/02/23 20:43:11;;;;;;;15.07;7.57;;;;;;;9.39;100.00;95889.50;5018431;28;20248;-68
2023/02/23 20:45:40;;;;;;;22.30;7.63;;;;;;;9.31;100.00;95886.97;5013456;28;20202;-68
2023/02/23 20:48:08;;;;;;;16.17;7.20;;;;;;;9.22;100.00;95878.31;5016200;28;20217;-68
2023/02/23 20:50:37;;;;;;;24.30;7.70;;;;;;;9.24;100.00;95876.34;5016217;28;20221;-68
2023/02/23 20:53:03;;;;;;;20.33;7.20;;;;;;;9.13;100.00;95870.69;5016162;28;21228;-68
2023/02/23 20:55:31;;;;;;;16.97;6.57;;;;;;;9.18;100.00;95868.34;5016107;28;20684;-68
2023/02/23 20:57:58;;;;;;;17.77;7.20;;;;;;;9.09;100.00;95866.78;5016364;28;20213;-68
2023/02/23 21:00:27;;;;;;;20.67;7.13;;;;;;;9.12;100.00;95867.22;5016533;28;20198;-68
2023/02/23 21:02:54;;;;;;;18.17;7.27;;;;;;;9.02;100.00;95865.81;5017294;28;20223;-68
2023/02/23 21:05:21;;;;;;;15.23;6.73;;;;;;;9.07;100.00;95862.69;5016207;28;20241;-68
2023/02/23 21:07:49;;;;;;;21.50;7.50;;;;;;;9.03;100.00;95862.22;5016487;28;20201;-68
2023/02/23 21:10:16;;;;;;;14.70;5.60;;;;;;;9.58;100.00;95857.44;5013689;28;20223;-68
2023/02/23 21:12:43;;;;;;;12.87;5.93;;;;;;;10.35;100.00;95861.97;5016046;28;20728;-67
2023/02/23 21:15:10;;;;;;;21.30;7.70;;;;;;;10.30;100.00;95855.63;5016097;28;20202;-68
2023/02/23 21:17:37;;;;;;;15.70;7.50;;;;;;;9.92;100.00;95855.91;5016572;28;20267;-68
2023/02/23 21:20:10;;;;;;;10.77;6.60;;;;;;;9.71;100.00;95854.00;5016733;28;20209;-68
2023/02/23 21:22:37;;;;;;;12.27;5.57;;;;;;;9.62;100.00;95861.34;5016686;28;20222;-68
2023/02/23 21:25:06;;;;;;;21.47;6.10;;;;;;;9.60;100.00;95860.69;5015871;28;21402;-68
2023/02/23 21:27:32;;;;;;;15.60;5.90;;;;;;;9.38;100.00;95858.94;5016837;28;20316;-68
2023/02/23 21:29:59;;;;;;;20.83;6.63;;;;;;;9.30;100.00;95851.94;5016532;28;20229;-68
2023/02/23 21:34:45;;;;;;;15.90;7.03;;;;;;;9.49;100.00;95858.50;5088402;27;20647;-68
2023/02/23 21:37:12;;;;;;;14.67;6.97;;;;;;;9.44;100.00;95851.16;5092292;28;20765;-68
2023/02/23 21:39:39;;;;;;;19.13;6.63;;;;;;;9.43;100.00;95864.47;5090805;28;20210;-68
2023/02/23 21:42:06;;;;;;;16.40;6.83;;;;;;;9.42;100.00;95849.69;5091481;28;20674;-68
2023/02/23 21:44:32;;;;;;;18.30;6.57;;;;;;;9.44;100.00;95847.72;5092171;28;20191;-68
2023/02/23 21:46:59;;;;;;;14.57;6.27;;;;;;;9.36;100.00;95847.81;5092306;28;20250;-68
2023/02/23 21:49:26;;;;;;;20.37;7.17;;;;;;;9.26;100.00;95847.22;5091061;28;20203;-68
2023/02/23 21:51:54;;;;;;;17.47;7.03;;;;;;;9.35;100.00;95846.16;5092553;28;21287;-68
2023/02/23 21:54:20;;;;;;;18.83;6.80;;;;;;;9.32;100.00;95849.16;5091415;28;20230;-68
2023/02/23 21:56:47;;;;;;;14.70;6.63;;;;;;;9.31;100.00;95855.41;5091665;28;20203;-68
2023/02/23 21:59:13;;;;;;;14.60;6.67;;;;;;;9.35;100.00;95851.41;5093082;28;20200;-68
2023/02/23 22:01:41;;;;;;;18.50;6.37;;;;;;;9.33;100.00;95851.59;5092729;28;20210;-68
2023/02/23 22:04:11;;;;;;;15.37;6.77;;;;;;;9.40;100.00;95846.44;5091638;28;20223;-68
2023/02/23 22:06:39;;;;;;;15.23;6.77;;;;;;;9.32;100.00;95847.34;5092568;28;20204;-68
2023/02/23 22:09:10;;;;;;;18.90;6.77;;;;;;;9.35;100.00;95838.28;5093421;28;20199;-68
2023/02/23 22:11:38;;;;;;;16.93;6.73;;;;;;;9.30;100.00;95848.50;5092499;28;20214;-68
2023/02/23 22:14:05;;;;;;;17.63;6.77;;;;;;;9.19;100.00;95844.50;5091627;28;20978;-68
2023/02/23 22:16:35;;;;;;;21.50;7.40;;;;;;;9.19;100.00;95846.31;5093166;28;20191;-68
2023/02/23 22:19:02;;;;;;;14.67;6.93;;;;;;;9.08;100.00;95845.94;5093822;28;20887;-68
2023/02/23 22:21:30;;;;;;;14.73;7.07;;;;;;;9.11;100.00;95843.75;5092963;28;20199;-68
2023/02/23 22:23:56;;;;;;;17.77;7.57;;;;;;;9.02;100.00;95838.75;5092317;28;21226;-68
2023/02/23 22:26:24;;;;;;;23.07;9.90;;;;;;;9.08;100.00;95838.03;5092316;28;20199;-68
2023/02/23 22:28:50;;;;;;;16.43;8.77;;;;;;;9.00;100.00;95840.72;5092333;28;20203;-68
2023/02/23 22:31:17;;;;;;;16.30;7.87;;;;;;;8.98;100.00;95838.28;5093349;28;20206;-68
2023/02/23 22:33:44;;;;;;;22.00;8.40;;;;;;;8.91;100.00;95837.34;5091884;28;20223;-68
2023/02/23 22:36:12;;;;;;;22.53;9.80;;;;;;;8.91;100.00;95842.63;5092960;28;20203;-68
2023/02/23 22:38:39;;;;;;;17.10;9.27;;;;;;;8.91;100.00;95831.25;5092891;28;20290;-68
2023/02/23 22:41:07;;;;;;;18.47;8.57;;;;;;;8.86;100.00;95826.56;5093063;28;20207;-68
2023/02/23 22:43:35;;;;;;;21.47;7.30;;;;;;;8.92;100.00;95828.47;5092220;28;20227;-68
2023/02/23 22:46:01;;;;;;;14.03;6.40;;;;;;;8.77;100.00;95830.25;5079506;28;20203;-68
2023/02/23 22:48:28;;;;;;;17.00;7.77;;;;;;;8.71;100.00;95828.31;5079497;28;20235;-68
2023/02/23 22:50:56;;;;;;;16.90;7.33;;;;;;;8.86;100.00;95830.97;5079116;28;20207;-68
2023/02/23 22:53:23;;;;;;;16.50;7.80;;;;;;;8.81;100.00;95826.28;5078759;28;20228;-68
2023/02/23 22:55:52;;;;;;;16.27;6.83;;;;;;;8.88;100.00;95829.00;5078808;28;21163;-68
2023/02/23 22:58:22;;;;;;;13.13;7.60;;;;;;;8.79;100.00;95830.88;5078865;28;20227;-68
2023/02/23 23:01:03;;;;;;;19.67;8.30;;;;;;;8.83;100.00;95823.47;5079347;28;20223;-68
2023/02/23 23:03:31;;;;;;;15.83;8.07;;;;;;;8.68;100.00;95825.19;5079826;28;20219;-68
2023/02/23 23:06:01;;;;;;;21.27;8.20;;;;;;;8.69;100.00;95822.44;5078274;28;20717;-68
2023/02/23 23:08:28;;;;;;;13.30;6.93;;;;;;;8.72;100.00;95816.81;5078583;28;20210;-68
2023/02/23 23:10:55;;;;;;;15.53;7.27;;;;;;;8.69;100.00;95811.91;5079359;28;20207;-68
2023/02/23 23:13:22;;;;;;;11.57;5.27;;;;;;;8.70;100.00;95812.72;5078790;28;20285;-68
2023/02/23 23:15:50;;;;;;;16.20;6.27;;;;;;;8.74;100.00;95809.56;5078043;28;20255;-68
2023/02/23 23:18:19;;;;;;;20.03;7.17;;;;;;;8.74;100.00;95809.56;5079128;28;20206;-68
2023/02/23 23:20:47;;;;;;;17.13;7.63;;;;;;;8.79;100.00;95807.22;5078954;28;20204;-68
2023/02/23 23:23:15;;;;;;;16.90;8.20;;;;;;;8.80;100.00;95813.31;5078291;28;20219;-68
2023/02/23 23:25:45;;;;;;;19.30;7.90;;;;;;;8.79;100.00;95807.22;5077977;28;20204;-68
2023/02/23 23:28:13;;;;;;;13.87;6.63;;;;;;;8.66;100.00;95807.00;5078708;28;20199;-68
2023/02/23 23:30:40;;;;;;;16.63;7.17;;;;;;;8.62;100.00;95804.91;5078319;28;20203;-68
2023/02/23 23:33:10;;;;;;;12.33;7.33;;;;;;;8.64;100.00;95810.78;5078365;28;20224;-68
2023/02/23 23:35:36;;;;;;;16.43;8.67;;;;;;;8.58;100.00;95804.44;5077619;28;20269;-68
2023/02/23 23:38:05;;;;;;;15.73;7.87;;;;;;;8.71;100.00;95798.59;5078271;28;20212;-68
2023/02/23 23:40:34;;;;;;;17.87;8.73;;;;;;;8.75;100.00;95789.38;5078605;28;20195;-68
2023/02/23 23:43:01;;;;;;;15.53;8.07;;;;;;;8.77;100.00;95793.47;5078330;28;20587;-68
2023/02/23 23:45:29;;;;;;;15.93;8.47;;;;;;;8.77;100.00;95785.59;5077519;28;20196;-68
2023/02/23 23:47:55;;;;;;;18.37;7.87;;;;;;;8.69;100.00;95780.41;5078242;28;20200;-68
2023/02/23 23:50:25;;;;;;;18.20;8.27;;;;;;;8.82;100.00;95778.00;5078102;28;20204;-68
2023/02/23 23:52:53;;;;;;;16.83;7.80;;;;;;;8.63;100.00;95770.59;5077984;28;20227;-68
2023/02/23 23:55:19;;;;;;;18.30;8.23;;;;;;;8.60;100.00;95773.59;5077140;28;20276;-68
2023/02/23 23:57:46;;;;;;;21.03;8.93;;;;;;;8.52;100.00;95776.25;5077291;28;20225;-68
